Time,TemperatureF,DewpointF,PressureIn,WindDirection,WindDirectionDegrees,WindSpeedMPH,WindSpeedGustMPH,Humidity,HourlyPrecipIn,Conditions,Clouds,dailyrainin,SolarRadiationWatts/m^2,SoftwareType,DateUTC
2013-03-04 00:12:00,31.0,24.0,29.64,NNE,17,0.0,3.0,75,0.00,,,0.00,0,weatherlink.com 1.10,2013-03-04 05:12:00,
2013-03-04 00:27:00,30.9,24.0,29.64,NNE,12,0.0,3.0,74,0.00,,,0.00,0,weatherlink.com 1.10,2013-03-04 05:27:00,
2013-03-04 00:42:00,30.8,24.0,29.64,North,11,0.0,2.0,75,0.00,,,0.00,0,weatherlink.com 1.10,2013-03-04 05:42:00,
2013-03-04 00:57:00,30.7,23.0,29.65,NNE,13,0.0,0.0,74,0.00,,,0.00,0,weatherlink.com 1.10,2013-03-04 05:57:00,
2013-03-04 01:12:00,30.4,23.0,29.65,WNW,288,3.0,5.0,73,0.00,,,0.00,0,weatherlink.com 1.10,2013-03-04 06:12:00,
2013-03-04 01:27:00,30.2,23.0,29.66,North,355,5.0,7.0,73,0.00,,,0.00,0,weatherlink.com 1.10,2013-03-04 06:27:00,
2013-03-04 01:42:00,29.8,22.0,29.65,NNE,13,0.0,5.0,73,0.00,,,0.00,0,weatherlink.com 1.10,2013-03-04 06:42:00,
2013-03-04 01:57:00,29.5,22.0,29.65,North,360,3.0,3.0,73,0.00,,,0.00,0,weatherlink.com 1.10,2013-03-04 06:57:00,
2013-03-04 02:12:00,29.0,21.0,29.65,NNE,19,3.0,7.0,73,0.00,,,0.00,0,weatherlink.com 1.10,2013-03-04 07:12:00,
2013-03-04 02:27:00,28.7,21.0,29.65,NNW,342,1.0,5.0,74,0.00,,,0.00,0,weatherlink.com 1.10,2013-03-04 07:27:00,
2013-03-04 02:42:00,28.5,21.0,29.66,ENE,69,1.0,4.0,73,0.00,,,0.00,0,weatherlink.com 1.10,2013-03-04 07:42:00,
2013-03-04 02:59:00,28.3,21.0,29.66,WNW,288,1.0,6.0,74,0.00,,,0.00,0,weatherlink.com 1.10,2013-03-04 07:59:00,
2013-03-04 03:13:00,28.1,21.0,29.65,SW,232,1.0,2.0,74,0.00,,,0.00,0,weatherlink.com 1.10,2013-03-04 08:13:00,
2013-03-04 03:28:00,27.9,21.0,29.65,SSW,195,0.0,6.0,74,0.00,,,0.00,0,weatherlink.com 1.10,2013-03-04 08:28:00,
2013-03-04 03:43:00,27.6,20.0,29.66,South,178,0.0,4.0,73,0.00,,,0.00,0,weatherlink.com 1.10,2013-03-04 08:43:00,
2013-03-04 03:58:00,27.3,20.0,29.66,South,179,0.0,0.0,74,0.00,,,0.00,0,weatherlink.com 1.10,2013-03-04 08:58:00,
2013-03-04 04:13:00,27.1,20.0,29.66,South,190,2.0,6.0,74,0.00,,,0.00,0,weatherlink.com 1.10,2013-03-04 09:13:00,
2013-03-04 04:28:00,27.1,20.0,29.66,NNE,32,2.0,3.0,73,0.00,,,0.00,0,weatherlink.com 1.10,2013-03-04 09:28:00,
2013-03-04 04:43:00,27.0,19.0,29.66,ENE,78,2.0,4.0,72,0.00,,,0.00,0,weatherlink.com 1.10,2013-03-04 09:43:00,
2013-03-04 04:58:00,26.9,19.0,29.67,SSW,203,5.0,7.0,72,0.00,,,0.00,0,weatherlink.com 1.10,2013-03-04 09:58:00,
2013-03-04 05:13:00,26.8,19.0,29.66,ESE,113,1.0,11.0,73,0.00,,,0.00,0,weatherlink.com 1.10,2013-03-04 10:13:00,
2013-03-04 05:28:00,26.7,19.0,29.67,North,360,0.0,7.0,72,0.00,,,0.00,0,weatherlink.com 1.10,2013-03-04 10:28:00,
2013-03-04 05:43:00,26.6,19.0,29.67,NNE,23,4.0,11.0,73,0.00,,,0.00,0,weatherlink.com 1.10,2013-03-04 10:43:00,
2013-03-04 05:58:00,26.5,19.0,29.67,WNW,299,2.0,9.0,73,0.00,,,0.00,0,weatherlink.com 1.10,2013-03-04 10:58:00,
2013-03-04 06:14:00,26.5,19.0,29.67,NW,322,1.0,8.0,73,0.00,,,0.00,0,weatherlink.com 1.10,2013-03-04 11:14:00,
2013-03-04 06:28:00,26.6,19.0,29.67,NNW,346,2.0,5.0,73,0.00,,,0.00,12,weatherlink.com 1.10,2013-03-04 11:28:00,
2013-03-04 06:43:00,26.6,19.0,29.68,NW,314,2.0,5.0,73,0.00,,,0.00,26,weatherlink.com 1.10,2013-03-04 11:43:00,
2013-03-04 06:58:00,26.9,19.0,29.68,NW,314,0.0,0.0,73,0.00,,,0.00,33,weatherlink.com 1.10,2013-03-04 11:58:00,
2013-03-04 07:13:00,27.1,20.0,29.68,NNW,337,0.0,4.0,73,0.00,,,0.00,58,weatherlink.com 1.10,2013-03-04 12:13:00,
2013-03-04 07:28:00,27.9,20.0,29.68,NNE,21,0.0,5.0,73,0.00,,,0.00,113,weatherlink.com 1.10,2013-03-04 12:28:00,
2013-03-04 07:44:00,28.7,21.0,29.68,North,355,3.0,9.0,72,0.00,,,0.00,179,weatherlink.com 1.10,2013-03-04 12:44:00,
2013-03-04 07:59:00,29.2,21.0,29.68,NNW,338,6.0,13.0,70,0.00,,,0.00,174,weatherlink.com 1.10,2013-03-04 12:59:00,
2013-03-04 08:14:00,29.8,21.0,29.68,NNE,18,0.0,9.0,69,0.00,,,0.00,167,weatherlink.com 1.10,2013-03-04 13:14:00,
2013-03-04 08:29:00,30.1,21.0,29.67,NNE,32,7.0,9.0,68,0.00,,,0.00,258,weatherlink.com 1.10,2013-03-04 13:29:00,
2013-03-04 08:44:00,32.3,22.0,29.67,North,355,2.0,9.0,66,0.00,,,0.00,563,weatherlink.com 1.10,2013-03-04 13:44:00,
2013-03-04 08:59:00,31.1,22.0,29.67,NNE,14,6.0,13.0,68,0.00,,,0.00,250,weatherlink.com 1.10,2013-03-04 13:59:00,
2013-03-04 09:14:00,30.7,21.0,29.67,NE,36,9.0,13.0,68,0.00,,,0.00,216,weatherlink.com 1.10,2013-03-04 14:14:00,
2013-03-04 09:29:00,31.9,22.0,29.67,North,5,7.0,13.0,66,0.00,,,0.00,490,weatherlink.com 1.10,2013-03-04 14:29:00,
2013-03-04 09:44:00,32.4,22.0,29.66,NE,46,7.0,10.0,65,0.00,,,0.00,214,weatherlink.com 1.10,2013-03-04 14:44:00,
2013-03-04 09:59:00,32.0,22.0,29.66,NNE,19,7.0,14.0,66,0.00,,,0.00,251,weatherlink.com 1.10,2013-03-04 14:59:00,
2013-03-04 10:14:00,32.5,22.0,29.66,NNW,338,9.0,13.0,66,0.00,,,0.00,306,weatherlink.com 1.10,2013-03-04 15:14:00,
2013-03-04 10:29:00,32.9,22.0,29.66,North,360,3.0,15.0,64,0.00,,,0.00,330,weatherlink.com 1.10,2013-03-04 15:29:00,
2013-03-04 10:44:00,33.9,22.0,29.66,NE,53,10.0,18.0,63,0.00,,,0.00,403,weatherlink.com 1.10,2013-03-04 15:44:00,
2013-03-04 10:59:00,34.3,22.0,29.66,NNE,19,6.0,12.0,61,0.00,,,0.00,381,weatherlink.com 1.10,2013-03-04 15:59:00,
2013-03-04 11:14:00,34.8,22.0,29.65,WNW,298,6.0,12.0,61,0.00,,,0.00,522,weatherlink.com 1.10,2013-03-04 16:14:00,
2013-03-04 11:29:00,35.0,23.0,29.65,NNE,16,11.0,17.0,61,0.00,,,0.00,411,weatherlink.com 1.10,2013-03-04 16:29:00,
2013-03-04 11:44:00,34.4,22.0,29.66,NE,42,10.0,18.0,62,0.00,,,0.00,315,weatherlink.com 1.10,2013-03-04 16:44:00,
2013-03-04 11:59:00,34.6,22.0,29.65,NE,39,9.0,21.0,61,0.00,,,0.00,360,weatherlink.com 1.10,2013-03-04 16:59:00,
2013-03-04 12:14:00,34.8,22.0,29.65,NNW,331,4.0,17.0,61,0.00,,,0.00,306,weatherlink.com 1.10,2013-03-04 17:14:00,
2013-03-04 12:29:00,35.0,23.0,29.65,NNE,20,5.0,15.0,62,0.00,,,0.00,308,weatherlink.com 1.10,2013-03-04 17:29:00,
2013-03-04 12:44:00,35.2,23.0,29.65,NE,37,12.0,13.0,61,0.00,,,0.00,309,weatherlink.com 1.10,2013-03-04 17:44:00,
2013-03-04 12:59:00,35.5,23.0,29.64,North,9,3.0,18.0,61,0.00,,,0.00,364,weatherlink.com 1.10,2013-03-04 17:59:00,
2013-03-04 13:30:00,37.0,24.0,29.63,NE,42,14.0,20.0,59,0.00,,,0.00,483,weatherlink.com 1.10,2013-03-04 18:30:00,
2013-03-04 13:44:00,36.7,23.0,29.64,North,355,3.0,17.0,58,0.00,,,0.00,311,weatherlink.com 1.10,2013-03-04 18:44:00,
2013-03-04 13:59:00,36.2,23.0,29.64,NE,36,9.0,20.0,59,0.00,,,0.00,220,weatherlink.com 1.10,2013-03-04 18:59:00,
2013-03-04 14:14:00,36.2,23.0,29.64,North,355,5.0,17.0,59,0.00,,,0.00,260,weatherlink.com 1.10,2013-03-04 19:14:00,
2013-03-04 14:29:00,36.9,24.0,29.64,NNE,25,6.0,17.0,59,0.00,,,0.00,325,weatherlink.com 1.10,2013-03-04 19:29:00,
2013-03-04 14:44:00,37.1,23.0,29.64,NE,45,8.0,16.0,58,0.00,,,0.00,292,weatherlink.com 1.10,2013-03-04 19:44:00,
2013-03-04 14:59:00,37.3,23.0,29.64,North,360,5.0,14.0,57,0.00,,,0.00,234,weatherlink.com 1.10,2013-03-04 19:59:00,
2013-03-04 15:14:00,37.0,23.0,29.64,NE,46,6.0,11.0,58,0.00,,,0.00,165,weatherlink.com 1.10,2013-03-04 20:14:00,
2013-03-04 15:29:00,36.7,23.0,29.65,NNW,333,4.0,8.0,58,0.00,,,0.00,148,weatherlink.com 1.10,2013-03-04 20:29:00,
2013-03-04 15:44:00,36.3,24.0,29.65,ENE,68,7.0,10.0,61,0.00,,,0.00,146,weatherlink.com 1.10,2013-03-04 20:44:00,
2013-03-04 15:59:00,36.0,24.0,29.65,North,355,4.0,15.0,61,0.00,,,0.00,141,weatherlink.com 1.10,2013-03-04 20:59:00,
2013-03-04 16:14:00,35.9,23.0,29.65,North,5,3.0,12.0,61,0.00,,,0.00,156,weatherlink.com 1.10,2013-03-04 21:14:00,
2013-03-04 16:29:00,35.9,23.0,29.66,North,355,5.0,17.0,60,0.00,,,0.00,114,weatherlink.com 1.10,2013-03-04 21:29:00,
2013-03-04 16:44:00,35.5,23.0,29.67,NNW,333,10.0,21.0,60,0.00,,,0.00,77,weatherlink.com 1.10,2013-03-04 21:44:00,
2013-03-04 16:59:00,35.2,23.0,29.67,NNW,348,0.0,10.0,61,0.00,,,0.00,30,weatherlink.com 1.10,2013-03-04 21:59:00,
2013-03-04 17:29:00,34.4,24.0,29.68,NE,44,3.0,12.0,65,0.00,,,0.00,11,weatherlink.com 1.10,2013-03-04 22:29:00,
2013-03-04 17:44:00,34.2,23.0,29.69,NNE,22,6.0,11.0,65,0.00,,,0.00,5,weatherlink.com 1.10,2013-03-04 22:44:00,
2013-03-04 17:59:00,34.2,23.0,29.70,NNE,19,4.0,16.0,65,0.00,,,0.00,0,weatherlink.com 1.10,2013-03-04 22:59:00,
2013-03-04 18:14:00,33.8,24.0,29.71,NNE,22,7.0,12.0,67,0.00,,,0.00,0,weatherlink.com 1.10,2013-03-04 23:14:00,
2013-03-04 18:29:00,33.7,24.0,29.73,NW,323,6.0,11.0,67,0.00,,,0.00,0,weatherlink.com 1.10,2013-03-04 23:29:00,
2013-03-04 18:44:00,33.4,23.0,29.73,NNE,24,5.0,17.0,67,0.00,,,0.00,0,weatherlink.com 1.10,2013-03-04 23:44:00,
2013-03-04 19:14:00,33.0,23.0,29.74,NNE,32,4.0,12.0,67,0.00,,,0.00,0,weatherlink.com 1.10,2013-03-05 00:14:00,
2013-03-04 19:29:00,32.7,23.0,29.75,North,5,3.0,11.0,67,0.00,,,0.00,0,weatherlink.com 1.10,2013-03-05 00:29:00,
2013-03-04 19:45:00,32.5,23.0,29.75,NE,36,4.0,14.0,68,0.00,,,0.00,0,weatherlink.com 1.10,2013-03-05 00:45:00,
2013-03-04 20:00:00,32.1,23.0,29.76,North,355,13.0,16.0,69,0.00,,,0.00,0,weatherlink.com 1.10,2013-03-05 01:00:00,
2013-03-04 20:15:00,31.9,23.0,29.77,NNE,26,4.0,13.0,69,0.00,,,0.00,0,weatherlink.com 1.10,2013-03-05 01:15:00,
2013-03-04 20:30:00,31.6,23.0,29.77,North,360,4.0,12.0,71,0.00,,,0.00,0,weatherlink.com 1.10,2013-03-05 01:30:00,
2013-03-04 20:46:00,31.3,23.0,29.77,NE,48,9.0,14.0,72,0.00,,,0.00,0,weatherlink.com 1.10,2013-03-05 01:46:00,
2013-03-04 21:00:00,31.2,23.0,29.78,NNE,15,6.0,15.0,72,0.00,,,0.00,0,weatherlink.com 1.10,2013-03-05 02:00:00,
2013-03-04 21:15:00,31.1,23.0,29.79,NE,40,5.0,12.0,72,0.00,,,0.00,0,weatherlink.com 1.10,2013-03-05 02:15:00,
2013-03-04 21:30:00,30.8,23.0,29.78,NNW,341,3.0,14.0,72,0.00,,,0.00,0,weatherlink.com 1.10,2013-03-05 02:30:00,
2013-03-04 21:45:00,30.6,22.0,29.79,NE,36,13.0,16.0,71,0.00,,,0.00,0,weatherlink.com 1.10,2013-03-05 02:45:00,
2013-03-04 22:00:00,30.3,22.0,29.79,NE,41,7.0,21.0,71,0.00,,,0.00,0,weatherlink.com 1.10,2013-03-05 03:00:00,
2013-03-04 22:15:00,30.1,22.0,29.79,NE,38,7.0,15.0,71,0.00,,,0.00,0,weatherlink.com 1.10,2013-03-05 03:15:00,
2013-03-04 22:30:00,30.0,22.0,29.79,NE,54,10.0,16.0,71,0.00,,,0.00,0,weatherlink.com 1.10,2013-03-05 03:30:00,
2013-03-04 22:45:00,30.0,22.0,29.80,North,355,4.0,14.0,71,0.00,,,0.00,0,weatherlink.com 1.10,2013-03-05 03:45:00,
2013-03-04 23:00:00,30.0,22.0,29.81,NNE,18,4.0,11.0,71,0.00,,,0.00,0,weatherlink.com 1.10,2013-03-05 04:00:00,
2013-03-04 23:15:00,30.0,22.0,29.81,NNW,341,3.0,19.0,71,0.00,,,0.00,0,weatherlink.com 1.10,2013-03-05 04:15:00,
2013-03-04 23:30:00,30.1,22.0,29.81,North,355,2.0,13.0,71,0.00,,,0.00,0,weatherlink.com 1.10,2013-03-05 04:30:00,
2013-03-04 23:45:00,30.0,22.0,29.81,NE,50,9.0,11.0,71,0.00,,,0.00,0,weatherlink.com 1.10,2013-03-05 04:45:00,